Time;durP1;ratioP1;P1;durP2;ratioP2;P2;SDS_P1;SDS_P2;PMS_P1;PMS_P2;Temp;Humidity;BMP_temperature;BMP_pressure;BME280_temperature;BME280_humidity;BME280_pressure;Samples;Min_cycle;Max_cycle;Signal;HPM_P1;HPM_P2
2021/12/13 00:01:21;;;;;;;;;32.67;25.00;;;;;10.83;81.37;102375.91;4880296;29;45547;-52
2021/12/13 00:04:00;;;;;;;;;43.67;26.33;;;;;10.81;81.58;102364.53;4863993;29;46184;-55
2021/12/13 00:06:30;;;;;;;;;23.33;21.00;;;;;10.72;81.06;102344.75;4879844;29;45484;-54
2021/12/13 00:08:59;;;;;;;;;31.33;24.67;;;;;10.81;81.46;102359.22;4864663;29;45484;-53
2021/12/13 00:11:38;;;;;;;;;28.33;26.33;;;;;10.81;81.27;102359.22;4902641;28;45423;-54
2021/12/13 00:14:12;;;;;;;;;35.00;27.00;;;;;10.78;81.26;102360.25;4917675;28;46139;-49
2021/12/13 00:16:43;;;;;;;;;28.00;21.33;;;;;10.78;81.43;102357.59;4917924;28;45417;-53
2021/12/13 00:19:16;;;;;;;;;26.67;20.00;;;;;10.78;81.36;102359.41;4992469;28;45522;-49
2021/12/13 00:21:50;;;;;;;;;22.33;16.33;;;;;10.79;81.25;102354.00;5017608;28;45487;-51
2021/12/13 00:24:24;;;;;;;;;30.00;18.33;;;;;10.78;81.46;102348.78;5016143;28;45511;-54
2021/12/13 00:26:52;;;;;;;;;24.33;21.67;;;;;10.79;81.33;102348.69;5017261;28;45411;-51
2021/12/13 00:29:22;;;;;;;;;21.00;13.33;;;;;10.79;81.64;102342.47;5017143;28;45500;-55
2021/12/13 00:32:17;;;;;;;;;26.33;21.00;;;;;10.80;81.32;102341.53;5017376;28;45555;-49
2021/12/13 00:34:48;;;;;;;;;15.67;15.67;;;;;10.76;81.11;102340.91;5017016;28;45381;-51
2021/12/13 00:37:37;;;;;;;;;32.33;23.67;;;;;10.73;81.65;102330.47;5017084;28;45420;-49
2021/12/13 00:40:20;;;;;;;;;26.00;18.00;;;;;10.72;81.13;102331.44;5017280;28;45341;-53
2021/12/13 00:42:51;;;;;;;;;32.33;23.33;;;;;10.73;81.35;102341.97;5017271;28;45656;-52
2021/12/13 00:45:21;;;;;;;;;28.00;24.67;;;;;10.72;81.27;102332.28;5016634;28;46581;-49
2021/12/13 00:47:46;;;;;;;;;34.67;24.00;;;;;10.70;81.37;102328.88;5016645;28;45239;-50
2021/12/13 00:50:25;;;;;;;;;23.67;22.00;;;;;10.70;81.32;102330.66;5017109;28;45243;-50
2021/12/13 00:52:52;;;;;;;;;30.33;21.00;;;;;10.71;81.45;102337.72;5016021;28;45373;-52
2021/12/13 00:55:25;;;;;;;;;34.33;24.00;;;;;10.72;81.52;102326.09;5019837;28;47188;-51
2021/12/13 00:58:04;;;;;;;;;28.33;21.00;;;;;10.65;81.53;102322.16;5019069;28;45362;-49
2021/12/13 01:00:34;;;;;;;;;28.33;21.33;;;;;10.69;81.69;102332.47;5020492;28;45532;-50
2021/12/13 01:03:05;;;;;;;;;31.67;21.33;;;;;10.71;81.51;102335.91;5020507;28;45453;-52
2021/12/13 01:05:42;;;;;;;;;30.67;24.00;;;;;10.72;81.52;102342.06;5020246;28;46231;-49
2021/12/13 01:08:08;;;;;;;;;21.00;19.33;;;;;10.70;81.35;102343.97;5020150;28;45218;-49
2021/12/13 01:10:40;;;;;;;;;34.67;23.00;;;;;10.69;81.59;102351.13;5020450;28;45357;-53
2021/12/13 01:13:24;;;;;;;;;24.00;18.33;;;;;10.71;81.49;102343.03;5020545;28;45342;-53
2021/12/13 01:15:58;;;;;;;;;36.67;24.67;;;;;10.67;82.17;102349.53;5019734;28;45448;-53
2021/12/13 01:18:55;;;;;;;;;32.00;22.33;;;;;10.62;82.15;102338.34;5019993;28;45486;-48
2021/12/13 01:21:32;;;;;;;;;31.00;23.00;;;;;10.65;82.00;102336.31;5019594;28;45393;-51
2021/12/13 01:24:07;;;;;;;;;22.00;21.00;;;;;10.66;82.00;102339.84;5020422;28;45470;-49
2021/12/13 01:26:39;;;;;;;;;26.67;20.67;;;;;10.56;82.03;102322.81;5019719;28;46275;-50
2021/12/13 01:29:23;;;;;;;;;23.67;14.67;;;;;10.64;81.92;102333.78;5019930;28;45334;-49
2021/12/13 01:31:58;;;;;;;;;27.00;19.33;;;;;10.63;81.82;102330.28;5019924;28;45323;-49
2021/12/13 01:34:27;;;;;;;;;32.00;22.33;;;;;10.62;82.11;102330.34;5020139;28;45382;-44
2021/12/13 01:37:31;;;;;;;;;31.67;25.33;;;;;10.61;81.61;102332.19;5019944;28;45951;-51
2021/12/13 01:39:53;;;;;;;;;31.33;24.67;;;;;10.63;81.83;102342.72;5015847;28;45480;-44
2021/12/13 01:42:29;;;;;;;;;27.67;21.33;;;;;10.60;82.10;102338.47;5019939;28;45419;-44
2021/12/13 01:44:59;;;;;;;;;26.67;25.00;;;;;10.58;82.15;102343.06;5019826;28;45474;-45
2021/12/13 01:47:28;;;;;;;;;24.33;20.67;;;;;10.61;82.11;102342.81;5019250;28;46216;-48
2021/12/13 01:50:04;;;;;;;;;41.33;23.67;;;;;10.61;82.24;102336.66;5019308;28;45279;-46
2021/12/13 01:52:32;;;;;;;;;28.00;25.00;;;;;10.60;82.08;102346.44;5019567;28;45236;-49
2021/12/13 01:55:04;;;;;;;;;33.33;26.67;;;;;10.58;81.90;102344.88;5019799;28;45368;-44
2021/12/13 01:57:47;;;;;;;;;34.33;25.00;;;;;10.56;82.11;102344.97;5019193;28;45303;-48
2021/12/13 02:01:08;;;;;;;;;26.33;20.67;;;;;10.56;81.98;102344.13;5019421;28;45347;-49
2021/12/13 02:03:21;;;;;;;;;38.00;30.67;;;;;10.55;82.34;102345.94;5019377;28;45288;-53
2021/12/13 02:05:48;;;;;;;;;29.00;26.00;;;;;10.51;82.04;102336.44;5018697;28;45327;-45
2021/12/13 02:08:20;;;;;;;;;31.00;25.67;;;;;10.51;82.77;102347.09;5019006;28;46431;-51
2021/12/13 02:10:51;;;;;;;;;32.00;26.67;;;;;10.48;82.88;102342.81;5019371;28;45367;-50
2021/12/13 02:13:22;;;;;;;;;30.33;25.33;;;;;10.50;82.84;102348.06;5019592;28;45370;-45
2021/12/13 02:18:38;;;;;;;;;37.33;25.33;;;;;10.50;82.88;102345.41;5019139;28;45378;-47
2021/12/13 02:21:08;;;;;;;;;19.00;15.33;;;;;10.48;81.97;102355.28;5018046;28;45378;-46
2021/12/13 02:23:41;;;;;;;;;25.67;20.33;;;;;10.47;82.54;102354.44;5018971;28;45205;-47
2021/12/13 02:26:08;;;;;;;;;29.00;21.67;;;;;10.46;82.51;102350.09;5001628;28;45256;-43
2021/12/13 02:28:37;;;;;;;;;36.33;26.00;;;;;10.47;82.65;102353.59;5018594;28;47254;-45
2021/12/13 02:31:07;;;;;;;;;31.00;21.00;;;;;10.48;82.58;102358.78;5019176;28;45392;-48
2021/12/13 02:33:44;;;;;;;;;30.00;27.67;;;;;10.50;82.57;102361.38;5019284;28;45441;-48
2021/12/13 02:36:13;;;;;;;;;25.00;18.67;;;;;10.46;82.12;102343.91;5019195;28;45331;-47
2021/12/13 02:38:41;;;;;;;;;34.00;23.67;;;;;10.48;82.21;102342.81;5018839;28;45454;-46
2021/12/13 02:41:08;;;;;;;;;27.67;18.67;;;;;10.51;82.39;102343.59;5000731;28;45335;-43
2021/12/13 02:43:39;;;;;;;;;28.67;19.00;;;;;10.52;82.51;102343.47;5018936;28;45276;-49
2021/12/13 02:46:04;;;;;;;;;24.67;16.33;;;;;10.55;81.97;102347.75;5018931;28;45414;-51
2021/12/13 02:48:30;;;;;;;;;26.00;23.00;;;;;10.54;82.04;102351.38;5018684;28;45405;-45
2021/12/13 02:51:09;;;;;;;;;16.00;12.00;;;;;10.52;81.99;102343.47;5018919;28;45181;-44
2021/12/13 02:53:40;;;;;;;;;28.00;20.67;;;;;10.48;81.98;102352.63;5018953;28;45457;-46
2021/12/13 02:56:07;;;;;;;;;22.00;18.33;;;;;10.47;82.11;102349.13;5018808;28;45539;-44
2021/12/13 02:58:34;;;;;;;;;21.33;15.00;;;;;10.48;82.61;102345.50;5017594;28;45831;-45
2021/12/13 03:01:14;;;;;;;;;21.67;16.67;;;;;10.48;82.50;102347.31;5018469;28;45492;-54
2021/12/13 03:03:44;;;;;;;;;21.00;17.00;;;;;10.46;82.52;102342.09;5018434;28;45307;-45
2021/12/13 03:06:13;;;;;;;;;28.67;18.67;;;;;10.42;82.18;102340.59;5018603;28;45402;-47
2021/12/13 03:08:44;;;;;;;;;19.67;19.33;;;;;10.38;82.91;102343.59;5018141;28;45418;-46
2021/12/13 03:11:22;;;;;;;;;29.67;18.00;;;;;10.34;83.30;102345.59;5000522;28;45260;-44
2021/12/13 03:13:59;;;;;;;;;22.00;17.33;;;;;10.38;83.16;102349.75;5018411;28;45382;-49
2021/12/13 03:16:39;;;;;;;;;24.33;17.00;;;;;10.39;82.54;102345.28;5018134;28;45227;-50
2021/12/13 03:19:09;;;;;;;;;20.00;15.33;;;;;10.36;82.71;102340.16;5000215;28;47249;-43
2021/12/13 03:22:03;;;;;;;;;26.33;18.33;;;;;10.37;82.57;102344.56;5018352;28;45290;-46
2021/12/13 03:24:34;;;;;;;;;21.67;19.67;;;;;10.41;82.76;102346.03;5018329;28;45429;-47
2021/12/13 03:27:25;;;;;;;;;17.00;15.67;;;;;10.37;82.35;102334.75;5018359;28;45347;-47
2021/12/13 03:29:53;;;;;;;;;25.00;19.33;;;;;10.43;82.30;102336.97;5018196;28;45280;-47
2021/12/13 03:32:21;;;;;;;;;23.00;15.00;;;;;10.44;82.55;102340.50;5017906;28;45482;-46
2021/12/13 03:35:06;;;;;;;;;21.00;16.33;;;;;10.42;82.30;102337.09;5017912;28;45322;-48
2021/12/13 03:37:32;;;;;;;;;21.33;20.00;;;;;10.40;82.46;102323.88;5017680;28;45910;-46
2021/12/13 03:40:02;;;;;;;;;23.67;19.67;;;;;10.40;82.23;102331.03;5017999;28;47372;-46
2021/12/13 03:42:33;;;;;;;;;26.67;19.33;;;;;10.38;82.63;102330.28;5018068;28;45437;-53
2021/12/13 03:45:04;;;;;;;;;23.00;20.00;;;;;10.38;82.56;102324.97;5018149;28;45319;-53
2021/12/13 03:47:36;;;;;;;;;26.33;17.67;;;;;10.36;82.72;102334.84;5018010;28;45327;-54
2021/12/13 03:50:09;;;;;;;;;31.33;23.00;;;;;10.35;83.04;102327.84;5017889;28;46016;-50
2021/12/13 03:52:38;;;;;;;;;29.67;21.00;;;;;10.34;83.04;102328.81;5017678;28;45342;-50
2021/12/13 03:55:05;;;;;;;;;24.33;17.67;;;;;10.35;83.13;102325.19;5017939;28;45218;-52
2021/12/13 03:57:31;;;;;;;;;24.67;18.00;;;;;10.36;82.55;102314.41;5017815;28;45435;-51
2021/12/13 03:59:59;;;;;;;;;25.67;15.00;;;;;10.37;82.91;102312.63;5017474;28;47218;-50
2021/12/13 04:02:31;;;;;;;;;28.33;21.33;;;;;10.33;82.75;102303.16;5017490;28;45408;-53
2021/12/13 04:05:06;;;;;;;;;26.00;18.33;;;;;10.33;82.79;102319.13;5017606;28;45434;-52
2021/12/13 04:07:39;;;;;;;;;39.00;24.00;;;;;10.29;83.19;102314.97;5017645;28;45406;-53
2021/12/13 04:10:10;;;;;;;;;25.33;19.33;;;;;10.33;82.94;102316.47;5017535;28;46128;-49
2021/12/13 04:12:44;;;;;;;;;30.33;18.67;;;;;10.32;82.86;102312.06;5017355;28;45354;-49
2021/12/13 04:15:24;;;;;;;;;22.00;15.00;;;;;10.32;82.82;102326.22;5017372;28;45319;-54
2021/12/13 04:20:28;;;;;;;;;29.33;19.33;;;;;10.31;82.75;102318.38;5017182;28;45334;-51
2021/12/13 04:22:57;;;;;;;;;22.67;11.33;;;;;10.27;82.79;102324.84;5017242;28;45344;-54
2021/12/13 04:25:31;;;;;;;;;23.00;19.67;;;;;10.25;82.53;102317.00;5017262;28;45236;-55
2021/12/13 04:28:19;;;;;;;;;27.00;16.00;;;;;10.27;82.72;102322.19;5017189;28;45528;-53
2021/12/13 04:30:48;;;;;;;;;21.67;18.00;;;;;10.28;82.80;102321.22;5015681;28;45493;-54
2021/12/13 04:33:27;;;;;;;;;24.33;18.67;;;;;10.28;82.42;102326.53;5016820;28;45466;-52
2021/12/13 04:35:57;;;;;;;;;25.67;18.33;;;;;10.31;82.56;102324.53;5017305;28;45195;-52
2021/12/13 04:38:35;;;;;;;;;30.00;19.67;;;;;10.33;82.39;102321.78;4999345;28;45513;-54
2021/12/13 04:41:01;;;;;;;;;24.00;17.00;;;;;10.33;82.51;102321.78;5016923;28;45446;-54
2021/12/13 04:43:27;;;;;;;;;26.67;16.67;;;;;10.29;82.48;102326.47;5016973;28;45411;-53
2021/12/13 04:45:59;;;;;;;;;21.00;13.67;;;;;10.28;82.45;102323.88;5016976;28;45354;-51
2021/12/13 04:48:29;;;;;;;;;16.67;12.67;;;;;10.28;82.20;102323.88;5016985;28;45307;-52
2021/12/13 04:51:03;;;;;;;;;21.00;16.00;;;;;10.26;82.17;102333.78;5016999;28;45438;-52
2021/12/13 04:53:37;;;;;;;;;22.33;19.33;;;;;10.20;82.58;102335.91;5016832;28;45296;-54
2021/12/13 04:56:09;;;;;;;;;21.67;15.00;;;;;10.18;82.56;102332.47;5016716;28;45421;-51
2021/12/13 04:58:35;;;;;;;;;18.33;15.00;;;;;10.21;82.66;102340.25;5017024;28;45404;-54
2021/12/13 05:01:05;;;;;;;;;19.33;17.00;;;;;10.18;82.47;102339.59;5016577;28;47044;-53
2021/12/13 05:03:35;;;;;;;;;23.00;15.00;;;;;10.16;82.82;102342.38;5016715;28;45798;-54
2021/12/13 05:06:14;;;;;;;;;17.00;15.00;;;;;10.18;82.80;102339.59;5016675;28;45232;-53
2021/12/13 05:08:41;;;;;;;;;18.33;14.00;;;;;10.10;82.24;102328.63;5016901;28;45290;-52
2021/12/13 05:11:09;;;;;;;;;16.33;12.33;;;;;10.23;82.21;102340.97;5016445;28;46101;-45
2021/12/13 05:13:50;;;;;;;;;17.33;15.33;;;;;10.22;82.20;102341.94;5016564;28;45441;-54
2021/12/13 05:16:25;;;;;;;;;21.33;16.00;;;;;10.22;82.30;102349.06;4997183;28;45364;-53
2021/12/13 05:18:54;;;;;;;;;16.67;16.33;;;;;10.19;82.09;102346.63;4996800;28;45348;-54
2021/12/13 05:21:48;;;;;;;;;24.67;16.00;;;;;10.22;82.35;102346.41;4996314;28;46229;-53
2021/12/13 05:24:20;;;;;;;;;20.67;12.00;;;;;10.22;82.51;102344.59;4994179;28;45284;-54
2021/12/13 05:26:50;;;;;;;;;9.67;7.00;;;;;10.25;81.86;102346.25;4996651;28;45409;-52
2021/12/13 05:29:40;;;;;;;;;20.67;16.67;;;;;10.21;82.22;102350.88;4996952;28;45352;-50
2021/12/13 05:32:46;;;;;;;;;21.67;16.00;;;;;10.26;81.86;102353.25;4996591;28;45382;-52
2021/12/13 05:35:49;;;;;;;;;20.67;18.33;;;;;10.30;81.62;102349.44;4935828;28;45409;-47
2021/12/13 05:38:29;;;;;;;;;25.00;16.00;;;;;10.32;81.76;102350.16;4926783;28;45236;-51
2021/12/13 05:40:57;;;;;;;;;25.00;18.67;;;;;10.29;81.52;102354.88;4938564;28;45416;-50
2021/12/13 05:43:28;;;;;;;;;15.33;15.00;;;;;10.28;81.12;102348.69;4939257;28;46204;-53
2021/12/13 05:46:06;;;;;;;;;24.33;19.00;;;;;10.29;81.29;102354.88;4939246;28;45436;-46
2021/12/13 05:48:33;;;;;;;;;13.00;11.33;;;;;10.30;81.02;102353.91;4939165;28;45510;-50
2021/12/13 05:51:01;;;;;;;;;16.67;12.33;;;;;10.25;81.14;102351.56;4939621;28;45405;-47
2021/12/13 05:53:38;;;;;;;;;22.67;16.00;;;;;10.23;80.85;102348.97;4939032;28;46826;-49
2021/12/13 05:56:03;;;;;;;;;19.33;14.00;;;;;10.24;80.81;102344.53;4939048;28;45409;-53
2021/12/13 05:58:40;;;;;;;;;21.67;14.33;;;;;10.20;80.76;102343.88;4939132;28;45451;-53
2021/12/13 06:01:14;;;;;;;;;20.00;17.33;;;;;10.18;80.57;102347.59;4939294;28;45213;-47
2021/12/13 06:04:08;;;;;;;;;19.33;13.00;;;;;10.16;80.69;102347.69;4938627;28;46110;-47
2021/12/13 06:06:45;;;;;;;;;14.33;11.00;;;;;10.14;80.99;102357.56;4933562;28;45420;-54
2021/12/13 06:09:30;;;;;;;;;11.00;10.00;;;;;10.10;80.82;102357.88;4968251;28;45437;-51
2021/12/13 06:12:07;;;;;;;;;14.67;12.67;;;;;10.08;80.00;102349.19;4999594;28;45139;-45
2021/12/13 06:14:33;;;;;;;;;12.33;9.00;;;;;10.06;80.51;102348.41;5005580;28;45419;-52
2021/12/13 06:17:05;;;;;;;;;10.67;8.00;;;;;10.02;79.94;102346.91;5019479;28;45378;-51
2021/12/13 06:19:35;;;;;;;;;18.00;12.67;;;;;10.00;79.73;102347.03;5019597;28;45559;-46
2021/12/13 06:22:07;;;;;;;;;18.00;12.00;;;;;9.99;79.87;102356.81;5019920;28;45511;-50
2021/12/13 06:24:56;;;;;;;;;14.00;13.33;;;;;9.94;80.09;102358.06;5019103;28;45418;-50
2021/12/13 06:27:31;;;;;;;;;15.00;13.33;;;;;9.90;80.22;102341.50;5019659;28;45897;-48
2021/12/13 06:29:59;;;;;;;;;18.33;13.67;;;;;9.96;79.84;102365.00;5020219;28;45436;-45
2021/12/13 06:32:36;;;;;;;;;16.00;12.00;;;;;9.96;79.72;102353.50;5019304;28;45434;-44
2021/12/13 06:35:29;;;;;;;;;13.67;11.00;;;;;9.89;80.07;102360.19;5018835;28;47168;-53
2021/12/13 06:37:55;;;;;;;;;21.33;12.33;;;;;9.87;80.17;102351.47;5018838;28;45530;-46
2021/12/13 06:40:27;;;;;;;;;12.67;12.67;;;;;9.92;80.35;102360.84;5019235;28;45694;-54
2021/12/13 06:43:02;;;;;;;;;16.33;12.33;;;;;9.91;80.18;102361.78;5019253;28;45362;-53
2021/12/13 06:45:31;;;;;;;;;10.67;10.33;;;;;9.90;80.20;102372.50;5018528;28;45940;-45
2021/12/13 06:47:59;;;;;;;;;14.33;10.33;;;;;9.77;80.22;102353.03;5018714;28;45236;-45
2021/12/13 06:50:32;;;;;;;;;17.33;12.67;;;;;9.85;81.06;102370.16;5018484;28;45334;-51
2021/12/13 06:53:18;;;;;;;;;10.67;7.67;;;;;9.83;80.71;102365.91;5018396;28;45407;-52
2021/12/13 06:55:45;;;;;;;;;14.00;10.67;;;;;9.86;80.78;102371.00;5018531;28;47425;-45
2021/12/13 06:58:14;;;;;;;;;12.33;10.67;;;;;9.88;80.72;102364.66;5018687;28;45344;-48
2021/12/13 07:00:40;;;;;;;;;16.33;13.33;;;;;9.86;80.59;102363.03;5018785;28;45425;-54
2021/12/13 07:03:09;;;;;;;;;14.67;13.33;;;;;9.90;80.13;102368.06;5018827;28;45317;-46
2021/12/13 07:05:35;;;;;;;;;15.00;12.00;;;;;9.89;80.48;102362.84;5018338;28;46173;-45
2021/12/13 07:08:19;;;;;;;;;13.33;8.67;;;;;9.89;80.47;102366.34;5018455;28;45369;-51
2021/12/13 07:10:55;;;;;;;;;22.33;12.67;;;;;9.89;80.70;102365.50;5018615;28;45423;-50
2021/12/13 07:13:20;;;;;;;;;13.67;9.67;;;;;9.90;80.62;102362.75;5017770;28;45240;-47
2021/12/13 07:15:56;;;;;;;;;10.00;10.00;;;;;9.91;80.34;102364.44;5018004;28;46244;-53
2021/12/13 07:18:30;;;;;;;;;12.00;11.00;;;;;9.94;80.57;102366.03;5018380;28;45466;-49
2021/12/13 07:21:02;;;;;;;;;7.67;7.00;;;;;9.93;80.59;102361.69;5018343;28;45541;-52
2021/12/13 07:23:28;;;;;;;;;14.67;11.00;;;;;9.90;80.92;102359.22;5018454;28;45498;-55
2021/12/13 07:25:55;;;;;;;;;9.33;7.67;;;;;9.86;80.47;102349.75;5018164;28;45506;-51
2021/12/13 07:28:37;;;;;;;;;8.00;7.67;;;;;9.85;80.66;102345.41;5017864;28;45228;-49
2021/12/13 07:31:06;;;;;;;;;11.00;8.00;;;;;9.80;80.59;102345.69;5018179;28;45267;-51
2021/12/13 07:33:45;;;;;;;;;11.00;7.00;;;;;9.73;80.44;102345.28;5018257;28;45331;-44
2021/12/13 07:36:24;;;;;;;;;6.33;6.33;;;;;9.81;80.65;102349.22;5017719;28;46325;-50
2021/12/13 07:39:02;;;;;;;;;7.33;7.00;;;;;9.85;80.69;102358.69;5017992;28;45284;-53
2021/12/13 07:41:43;;;;;;;;;8.00;5.67;;;;;9.83;80.60;102361.47;5016988;28;45807;-52
2021/12/13 07:44:33;;;;;;;;;7.00;7.00;;;;;9.82;79.77;102350.91;5018026;28;45338;-49
2021/12/13 07:47:24;;;;;;;;;16.67;9.67;;;;;9.89;79.64;102371.66;5016079;28;46218;-50
2021/12/13 07:49:58;;;;;;;;;9.33;7.00;;;;;9.92;79.65;102378.59;5016827;28;45386;-53
2021/12/13 07:52:29;;;;;;;;;11.00;9.00;;;;;9.95;80.04;102378.41;4999497;28;45370;-53
2021/12/13 07:54:56;;;;;;;;;10.67;8.00;;;;;9.93;80.17;102370.50;5017139;28;45361;-50
2021/12/13 07:57:29;;;;;;;;;6.33;3.67;;;;;9.98;80.04;102364.88;5015379;28;46505;-52
2021/12/13 07:59:55;;;;;;;;;8.00;8.00;;;;;9.98;80.05;102357.75;5015816;28;45532;-53
2021/12/13 08:02:33;;;;;;;;;12.67;12.67;;;;;10.04;79.90;102360.97;5015999;28;45480;-53
2021/12/13 08:05:08;;;;;;;;;20.33;14.67;;;;;10.03;80.16;102364.56;4997033;28;45585;-53
2021/12/13 08:07:46;;;;;;;;;17.00;13.33;;;;;10.06;80.08;102367.88;5014952;28;46229;-53
2021/12/13 08:10:19;;;;;;;;;25.00;15.00;;;;;10.08;79.61;102360.66;5015405;28;45454;-52
2021/12/13 08:13:08;;;;;;;;;16.67;13.00;;;;;10.04;79.72;102361.81;5015002;28;45510;-44
2021/12/13 08:15:56;;;;;;;;;16.50;13.50;;;;;10.04;79.83;102356.50;5014833;28;45595;-54
2021/12/13 08:18:21;;;;;;;;;17.00;16.33;;;;;10.02;79.51;102369.03;5015299;28;46150;-53
2021/12/13 08:20:55;;;;;;;;;10.00;9.00;;;;;10.02;80.12;102371.69;5015547;28;45402;-45
2021/12/13 08:23:27;;;;;;;;;15.33;12.67;;;;;10.05;79.44;102374.16;5014702;28;45477;-44
2021/12/13 08:25:57;;;;;;;;;18.67;16.67;;;;;10.09;79.71;102372.16;4997934;28;45455;-51
2021/12/13 08:28:33;;;;;;;;;15.00;13.00;;;;;10.06;79.86;102367.88;5015597;28;45478;-52
2021/12/13 08:31:01;;;;;;;;;17.33;16.00;;;;;10.07;79.83;102377.56;4997784;28;45333;-46
2021/12/13 08:33:46;;;;;;;;;19.00;15.00;;;;;10.01;79.57;102380.63;5015620;28;45474;-55
2021/12/13 08:36:15;;;;;;;;;13.67;12.33;;;;;10.04;79.78;102380.44;5015472;28;45405;-55
2021/12/13 08:38:50;;;;;;;;;13.67;12.33;;;;;10.03;79.75;102383.19;5015449;28;46228;-44
2021/12/13 08:41:15;;;;;;;;;21.67;16.33;;;;;10.04;79.74;102374.28;5015267;28;45450;-46
2021/12/13 08:43:51;;;;;;;;;20.67;16.33;;;;;10.01;80.40;102377.97;5015378;28;45449;-53
2021/12/13 08:46:42;;;;;;;;;23.33;21.33;;;;;10.00;79.94;102376.28;5015623;28;45453;-53
2021/12/13 08:49:39;;;;;;;;;26.67;21.00;;;;;9.98;79.89;102392.31;5015493;28;45371;-44
2021/12/13 08:52:14;;;;;;;;;31.33;26.00;;;;;9.96;80.66;102396.03;5008825;28;45801;-47
2021/12/13 08:54:55;;;;;;;;;29.33;25.67;;;;;9.94;80.49;102388.19;5015196;28;45432;-45
2021/12/13 08:57:41;;;;;;;;;30.33;24.33;;;;;9.95;81.08;102384.56;5015567;28;45604;-44
2021/12/13 09:00:30;;;;;;;;;17.00;15.00;;;;;9.94;79.68;102382.00;5015122;28;46262;-55
2021/12/13 09:03:17;;;;;;;;;9.00;9.00;;;;;9.98;79.30;102380.81;5014735;28;45534;-49
2021/12/13 09:05:56;;;;;;;;;2.67;2.67;;;;;9.92;78.70;102390.06;5015073;28;45400;-52
2021/12/13 09:08:35;;;;;;;;;8.67;3.67;;;;;9.94;78.66;102392.63;5015104;28;45483;-53
2021/12/13 09:11:14;;;;;;;;;7.67;3.00;;;;;9.94;77.41;102395.28;5014473;28;46239;-45
2021/12/13 09:14:02;;;;;;;;;6.00;5.00;;;;;10.02;78.03;102392.13;5014975;28;45359;-52
2021/12/13 09:16:40;;;;;;;;;5.00;5.00;;;;;10.06;77.70;102390.94;5000389;28;45394;-46
2021/12/13 09:19:14;;;;;;;;;7.00;2.67;;;;;10.06;77.40;102399.78;5019189;28;45445;-52
2021/12/13 09:21:50;;;;;;;;;5.33;5.33;;;;;9.99;77.03;102402.00;5018780;28;47000;-43
2021/12/13 09:24:44;;;;;;;;;14.00;9.33;;;;;9.97;77.84;102406.56;5018404;28;45438;-43
2021/12/13 09:27:29;;;;;;;;;6.00;3.00;;;;;9.96;77.07;102401.38;5018560;28;45475;-44
2021/12/13 09:30:00;;;;;;;;;11.00;6.33;;;;;9.88;76.83;102399.22;5018468;28;45485;-53
2021/12/13 09:32:36;;;;;;;;;1.33;0.00;;;;;9.92;77.70;102405.19;5018174;28;46350;-44
2021/12/13 09:35:23;;;;;;;;;7.67;6.00;;;;;10.01;77.55;102407.22;5018251;28;45434;-54
2021/12/13 09:37:50;;;;;;;;;6.00;2.33;;;;;10.11;76.42;102418.97;5018545;28;45362;-45
2021/12/13 09:40:18;;;;;;;;;10.67;8.00;;;;;10.10;76.34;102417.22;5019346;28;45478;-52
2021/12/13 09:42:55;;;;;;;;;6.67;4.33;;;;;10.16;75.81;102411.53;5018935;28;46082;-44
2021/12/13 09:45:37;;;;;;;;;3.67;2.33;;;;;10.32;74.50;102407.84;5019057;28;45326;-51
2021/12/13 09:48:21;;;;;;;;;6.00;2.00;;;;;10.33;73.98;102398.94;5019077;28;46206;-43
2021/12/13 09:50:49;;;;;;;;;6.00;2.00;;;;;10.31;72.97;102403.47;5019343;28;45483;-44
2021/12/13 09:53:15;;;;;;;;;2.67;2.00;;;;;10.22;72.54;102395.13;5018900;28;45212;-47
2021/12/13 09:55:46;;;;;;;;;1.33;1.33;;;;;10.13;73.21;102409.06;5018903;28;45449;-46
2021/12/13 09:58:14;;;;;;;;;2.67;1.00;;;;;10.07;73.89;102414.81;5019121;28;45444;-44
2021/12/13 10:00:55;;;;;;;;;6.00;2.00;;;;;9.97;74.32;102411.88;5018925;28;45503;-44
2021/12/13 10:03:29;;;;;;;;;1.33;1.00;;;;;9.89;73.47;102410.69;5018689;28;46229;-44
2021/12/13 10:06:02;;;;;;;;;2.00;2.00;;;;;9.81;74.33;102413.00;5018587;28;45394;-45
2021/12/13 10:08:41;;;;;;;;;3.67;3.67;;;;;9.77;73.39;102416.81;5017197;28;45389;-45
2021/12/13 10:11:17;;;;;;;;;3.67;2.67;;;;;9.74;74.86;102413.41;5019106;28;45363;-47
2021/12/13 10:13:43;;;;;;;;;2.00;2.00;;;;;9.74;74.49;102415.22;5022168;28;48013;-43
2021/12/13 10:16:13;;;;;;;;;1.00;1.00;;;;;9.75;74.71;102412.44;5038379;28;45385;-45
2021/12/13 10:18:42;;;;;;;;;5.00;5.00;;;;;9.69;73.67;102418.19;5038737;28;45400;-43
2021/12/13 10:21:15;;;;;;;;;8.00;3.00;;;;;9.65;74.95;102403.38;5038791;28;45196;-44
2021/12/13 10:23:46;;;;;;;;;1.67;1.00;;;;;9.64;74.43;102401.66;5038304;28;45409;-46
2021/12/13 10:26:14;;;;;;;;;3.67;2.00;;;;;9.63;74.47;102399.97;5037394;28;45520;-46
2021/12/13 10:28:52;;;;;;;;;10.00;5.33;;;;;9.61;74.54;102403.69;5038234;28;45393;-45
2021/12/13 10:31:22;;;;;;;;;2.00;2.00;;;;;9.49;74.71;102397.38;5038344;28;45482;-44
2021/12/13 10:33:48;;;;;;;;;1.00;1.00;;;;;9.47;74.36;102399.25;5038100;28;46246;-55
2021/12/13 10:36:14;;;;;;;;;1.00;1.00;;;;;9.45;74.14;102395.84;5038086;28;45497;-43
2021/12/13 10:38:45;;;;;;;;;0.00;0.00;;;;;9.41;74.41;102397.84;5037970;28;45371;-49
2021/12/13 10:41:16;;;;;;;;;1.00;1.00;;;;;9.42;74.29;102398.69;5038705;28;45410;-44
2021/12/13 10:43:46;;;;;;;;;1.00;1.00;;;;;9.44;73.99;102402.13;5037843;28;48150;-49
2021/12/13 10:46:20;;;;;;;;;2.00;2.00;;;;;9.37;74.24;102395.50;5037878;28;45504;-46
2021/12/13 10:48:49;;;;;;;;;1.00;1.00;;;;;9.37;74.99;102396.34;5038096;28;45365;-52
2021/12/13 10:51:20;;;;;;;;;3.00;1.00;;;;;9.35;74.93;102397.38;5038663;28;45314;-54
2021/12/13 10:53:48;;;;;;;;;3.00;1.00;;;;;9.31;75.45;102395.88;5037644;28;46307;-56
2021/12/13 10:56:22;;;;;;;;;1.67;1.67;;;;;9.17;75.29;102370.19;5037799;28;45432;-45
2021/12/13 10:58:52;;;;;;;;;3.00;2.00;;;;;9.25;75.23;102392.66;5037966;28;45350;-46
2021/12/13 11:01:25;;;;;;;;;1.00;1.00;;;;;9.24;75.85;102390.97;5038118;28;45345;-47
2021/12/13 11:03:53;;;;;;;;;3.00;2.00;;;;;9.26;75.23;102388.19;5037947;28;45461;-46
2021/12/13 11:06:19;;;;;;;;;3.00;3.00;;;;;9.29;75.48;102395.13;5037673;28;45180;-47
2021/12/13 11:08:45;;;;;;;;;1.00;1.00;;;;;9.22;75.62;102392.00;5037248;28;45542;-45
2021/12/13 11:11:33;;;;;;;;;5.33;5.33;;;;;9.29;75.32;102390.66;5037968;28;45493;-48
2021/12/13 11:14:05;;;;;;;;;3.67;3.67;;;;;9.25;75.37;102389.16;5037440;28;45457;-47
2021/12/13 11:16:37;;;;;;;;;3.67;2.67;;;;;9.21;75.87;102396.47;5037305;28;45390;-45
2021/12/13 11:19:06;;;;;;;;;3.00;3.00;;;;;9.23;75.74;102383.97;5037559;28;45323;-45
2021/12/13 11:21:35;;;;;;;;;4.33;2.67;;;;;9.20;75.04;102393.91;5037722;28;45397;-46
2021/12/13 11:24:04;;;;;;;;;7.00;3.00;;;;;9.25;75.28;102400.63;5037077;28;46163;-47
2021/12/13 11:26:34;;;;;;;;;5.00;5.00;;;;;9.19;75.42;102387.75;5037261;28;45333;-44
2021/12/13 11:29:01;;;;;;;;;7.00;5.00;;;;;9.24;75.28;102392.78;5037501;28;45532;-47
2021/12/13 11:31:30;;;;;;;;;7.00;6.33;;;;;9.23;76.00;102391.91;5037685;28;45580;-45
2021/12/13 11:34:02;;;;;;;;;3.00;3.00;;;;;9.28;76.03;102394.28;5037040;28;46199;-52
2021/12/13 11:36:49;;;;;;;;;8.33;7.00;;;;;9.36;75.42;102391.16;5037315;28;45465;-46
2021/12/13 11:39:30;;;;;;;;;9.33;2.00;;;;;9.32;74.73;102390.47;5036817;28;45406;-46
2021/12/13 11:42:33;;;;;;;;;7.00;3.00;;;;;9.36;75.36;102388.50;5037332;28;45256;-44
2021/12/13 11:45:32;;;;;;;;;5.67;5.33;;;;;9.37;75.47;102385.72;5037003;28;46116;-44
2021/12/13 11:48:12;;;;;;;;;7.33;6.33;;;;;9.29;75.57;102388.00;5036728;28;45431;-43
2021/12/13 11:50:58;;;;;;;;;6.33;4.33;;;;;9.27;76.06;102381.09;5037037;28;45392;-46
2021/12/13 11:53:58;;;;;;;;;3.00;2.00;;;;;9.27;75.21;102384.63;5037004;28;45467;-44
2021/12/13 11:56:35;;;;;;;;;4.67;4.67;;;;;9.29;74.71;102381.84;5036936;28;46310;-45